createdAt,value
2022-10-26T00:01:58.191Z,15.00
2022-10-26T00:05:03.858Z,14.00
2022-10-26T00:08:07.862Z,13.50
2022-10-26T00:11:13.324Z,13.25
2022-10-26T00:14:17.420Z,12.50
2022-10-26T00:17:21.409Z,13.00
2022-10-26T00:20:26.422Z,12.00
2022-10-26T00:23:30.847Z,8.25
2022-10-26T00:26:34.427Z,12.75
2022-10-26T00:29:38.460Z,12.50
2022-10-26T00:32:43.002Z,12.00
2022-10-26T00:35:54.822Z,12.00
2022-10-26T00:38:58.807Z,12.75
2022-10-26T00:42:05.555Z,12.50
2022-10-26T00:45:22.970Z,12.00
2022-10-26T00:48:30.442Z,11.75
2022-10-26T00:51:40.942Z,13.00
2022-10-26T00:54:45.774Z,11.00
2022-10-26T00:57:52.145Z,10.25
2022-10-26T01:00:57.190Z,11.75
2022-10-26T01:04:02.238Z,10.50
2022-10-26T01:07:09.545Z,12.00
2022-10-26T01:10:15.263Z,11.50
2022-10-26T01:13:20.373Z,10.50
2022-10-26T01:16:42.998Z,11.00
2022-10-26T01:20:34.379Z,11.00
2022-10-26T01:23:56.313Z,10.50
2022-10-26T01:27:23.454Z,9.75
2022-10-26T01:30:38.076Z,11.25
2022-10-26T01:33:47.525Z,12.00
2022-10-26T01:36:56.184Z,11.50
2022-10-26T01:40:08.425Z,12.00
2022-10-26T01:43:14.873Z,8.75
2022-10-26T01:46:22.409Z,11.75
2022-10-26T01:49:30.236Z,11.75
2022-10-26T01:52:34.678Z,10.50
2022-10-26T01:55:46.947Z,11.50
2022-10-26T01:59:21.584Z,9.50
2022-10-26T02:02:55.657Z,10.00
2022-10-26T02:06:08.214Z,10.75
2022-10-26T02:09:21.930Z,11.25
2022-10-26T02:12:37.777Z,8.00
2022-10-26T02:15:50.931Z,11.75
2022-10-26T02:19:04.145Z,11.75
2022-10-26T02:22:15.263Z,11.25
2022-10-26T02:25:23.419Z,11.50
2022-10-26T02:28:32.415Z,9.25
2022-10-26T02:31:41.435Z,11.00
2022-10-26T02:34:48.905Z,12.00
2022-10-26T02:37:57.596Z,12.00
2022-10-26T02:41:03.059Z,10.50
2022-10-26T02:44:14.850Z,10.75
2022-10-26T02:47:19.970Z,9.00
2022-10-26T02:50:31.138Z,10.00
2022-10-26T02:53:40.178Z,9.00
2022-10-26T02:56:50.338Z,11.00
2022-10-26T02:59:55.440Z,10.50
2022-10-26T03:03:02.976Z,10.75
2022-10-26T03:06:08.474Z,10.25
2022-10-26T03:09:12.646Z,10.75
2022-10-26T03:12:16.109Z,12.00
2022-10-26T03:15:20.396Z,10.00
2022-10-26T03:18:23.899Z,11.75
2022-10-26T03:21:31.875Z,8.00
2022-10-26T03:24:35.688Z,3.00
2022-10-26T03:27:39.692Z,11.00
2022-10-26T03:30:43.338Z,10.50
2022-10-26T03:33:47.837Z,26.50
2022-10-26T03:36:53.038Z,20.25
2022-10-26T03:39:56.771Z,15.00
2022-10-26T03:43:00.323Z,12.00
2022-10-26T03:46:04.188Z,10.50
2022-10-26T03:49:07.885Z,10.25
2022-10-26T03:52:13.182Z,10.25
2022-10-26T03:55:17.334Z,13.00
2022-10-26T03:58:21.534Z,14.50
2022-10-26T04:01:25.205Z,12.00
2022-10-26T04:04:29.291Z,10.00
2022-10-26T04:07:34.493Z,11.25
2022-10-26T04:10:38.667Z,10.00
2022-10-26T04:13:43.669Z,11.50
2022-10-26T04:16:49.032Z,12.00
2022-10-26T04:19:57.773Z,12.75
2022-10-26T04:23:07.934Z,13.50
2022-10-26T04:26:11.624Z,21.25
2022-10-26T04:29:15.872Z,11.00
2022-10-26T04:32:19.330Z,11.50
2022-10-26T04:35:23.344Z,19.25
2022-10-26T04:38:28.548Z,25.00
2022-10-26T04:41:32.347Z,12.50
2022-10-26T04:44:36.969Z,12.25
2022-10-26T04:47:41.847Z,11.25
2022-10-26T04:50:46.157Z,13.00
2022-10-26T04:53:51.406Z,12.00
2022-10-26T04:56:54.909Z,8.00
2022-10-26T05:00:01.608Z,15.00
2022-10-26T05:03:07.034Z,15.00
2022-10-26T05:06:11.375Z,13.50
2022-10-26T05:09:16.529Z,17.75
2022-10-26T05:12:20.824Z,16.00
2022-10-26T05:15:25.003Z,25.50
2022-10-26T05:18:29.015Z,12.00
2022-10-26T05:21:32.820Z,54.00
2022-10-26T05:24:38.516Z,119.25
2022-10-26T05:27:41.952Z,21.25
2022-10-26T05:30:47.359Z,24.75
2022-10-26T05:33:51.608Z,29.00
2022-10-26T05:36:55.661Z,37.50
2022-10-26T05:40:00.992Z,26.00
2022-10-26T05:43:05.829Z,19.75
2022-10-26T05:46:09.388Z,30.25
2022-10-26T05:49:15.789Z,22.75
2022-10-26T05:52:19.394Z,27.25
2022-10-26T05:55:25.854Z,26.50
2022-10-26T05:58:29.896Z,18.25
2022-10-26T06:01:50.020Z,37.00
2022-10-26T06:04:56.554Z,16.75
2022-10-26T06:08:00.743Z,14.00
2022-10-26T06:11:07.906Z,28.00
2022-10-26T06:14:12.644Z,40.75
2022-10-26T06:17:32.164Z,27.50
2022-10-26T06:20:54.683Z,31.00
2022-10-26T06:24:08.868Z,34.75
2022-10-26T06:27:23.793Z,32.00
2022-10-26T06:30:27.432Z,36.50
2022-10-26T06:33:31.978Z,31.75
2022-10-26T06:36:36.272Z,33.75
2022-10-26T06:39:48.910Z,32.00
2022-10-26T06:42:56.694Z,32.00
2022-10-26T06:46:08.590Z,36.25
2022-10-26T06:49:21.080Z,28.00
2022-10-26T06:52:34.373Z,29.75
2022-10-26T06:55:43.271Z,29.00
2022-10-26T06:58:51.178Z,32.25
2022-10-26T07:01:54.743Z,34.00
2022-10-26T07:04:58.667Z,30.25
2022-10-26T07:08:06.415Z,28.50
2022-10-26T07:11:12.216Z,28.00
2022-10-26T07:14:17.609Z,30.00
2022-10-26T07:17:21.691Z,28.25
2022-10-26T07:20:25.312Z,31.75
2022-10-26T07:26:33.855Z,27.75
2022-10-26T07:29:40.572Z,21.00
2022-10-26T07:32:44.129Z,20.00
2022-10-26T07:35:48.760Z,23.25
2022-10-26T07:38:53.979Z,20.50
2022-10-26T07:41:57.913Z,24.00
2022-10-26T07:45:02.926Z,23.25
2022-10-26T07:48:07.326Z,15.75
2022-10-26T07:51:11.297Z,20.75
2022-10-26T07:54:15.140Z,20.50
2022-10-26T07:57:18.854Z,16.25
2022-10-26T08:00:24.595Z,24.00
2022-10-26T08:03:28.188Z,23.75
2022-10-26T08:06:32.191Z,23.25
2022-10-26T08:09:36.844Z,26.50
2022-10-26T08:12:41.270Z,26.00
2022-10-26T08:15:47.815Z,24.25
2022-10-26T08:18:53.479Z,22.50
2022-10-26T08:21:56.924Z,22.50
2022-10-26T08:25:02.188Z,22.75
2022-10-26T08:28:11.034Z,20.75
2022-10-26T08:31:30.554Z,23.00
2022-10-26T08:34:34.433Z,20.75
2022-10-26T08:37:40.324Z,24.00
2022-10-26T08:40:45.267Z,23.00
2022-10-26T08:43:54.139Z,16.00
2022-10-26T08:47:02.398Z,23.00
2022-10-26T08:50:12.567Z,23.00
2022-10-26T08:53:23.849Z,23.00
2022-10-26T08:56:29.639Z,21.25
2022-10-26T08:59:39.530Z,23.00
2022-10-26T09:02:45.182Z,19.75
2022-10-26T09:06:05.481Z,23.00
2022-10-26T09:09:17.201Z,21.25
2022-10-26T09:12:28.349Z,19.00
2022-10-26T09:15:49.458Z,19.00
2022-10-26T09:19:03.204Z,23.75
2022-10-26T09:22:15.375Z,17.75
2022-10-26T09:25:24.456Z,18.75
2022-10-26T09:28:32.795Z,18.00
2022-10-26T09:31:45.827Z,22.75
2022-10-26T09:34:54.692Z,18.75
2022-10-26T09:38:04.815Z,19.00
2022-10-26T09:41:20.372Z,15.00
2022-10-26T09:44:29.181Z,17.75
2022-10-26T09:47:40.462Z,14.25
2022-10-26T09:50:49.991Z,12.00
2022-10-26T09:53:59.412Z,14.75
2022-10-26T09:57:04.057Z,13.00
2022-10-26T10:00:13.776Z,12.67
2022-10-26T10:03:27.700Z,17.00
2022-10-26T10:06:33.033Z,12.00
2022-10-26T10:09:36.787Z,14.00
2022-10-26T10:12:40.789Z,14.00
2022-10-26T10:15:54.107Z,13.67
2022-10-26T10:19:00.897Z,10.67
2022-10-26T10:22:13.238Z,9.00
2022-10-26T10:25:25.617Z,11.00
2022-10-26T10:28:30.229Z,12.33
2022-10-26T10:31:35.581Z,8.00
2022-10-26T10:34:39.344Z,9.33
2022-10-26T10:37:47.000Z,6.67
2022-10-26T10:40:53.176Z,9.00
2022-10-26T10:44:09.165Z,9.33
2022-10-26T10:47:25.429Z,9.67
2022-10-26T10:50:30.643Z,12.00
2022-10-26T10:53:39.212Z,11.00
2022-10-26T10:56:48.753Z,8.67
2022-10-26T11:00:05.538Z,9.00
2022-10-26T11:03:34.699Z,9.00
2022-10-26T11:06:42.360Z,8.33
2022-10-26T11:13:02.350Z,10.00
2022-10-26T11:16:14.290Z,7.00
2022-10-26T11:19:23.989Z,7.33
2022-10-26T11:22:34.978Z,8.00
2022-10-26T11:25:46.159Z,8.00
2022-10-26T11:28:56.679Z,7.00
2022-10-26T11:32:10.987Z,8.33
2022-10-26T11:35:24.587Z,7.00
2022-10-26T11:38:46.149Z,6.00
2022-10-26T11:42:08.702Z,5.00
2022-10-26T11:45:20.841Z,6.67
2022-10-26T11:48:31.820Z,5.33
2022-10-26T11:51:40.914Z,4.00
2022-10-26T11:54:52.331Z,4.00
2022-10-26T11:57:59.191Z,5.00
2022-10-26T12:01:30.408Z,3.00
2022-10-26T12:04:38.655Z,3.67
2022-10-26T12:07:48.496Z,1.67
2022-10-26T12:11:03.020Z,2.00
2022-10-26T12:14:20.279Z,1.67
2022-10-26T12:17:32.124Z,3.00
2022-10-26T12:20:54.603Z,3.00
2022-10-26T12:24:00.300Z,2.00
2022-10-26T12:27:07.481Z,2.00
2022-10-26T12:30:27.167Z,2.00
2022-10-26T12:33:31.999Z,2.00
2022-10-26T12:37:13.173Z,2.00
2022-10-26T12:40:43.547Z,2.00
2022-10-26T12:43:49.228Z,2.00
2022-10-26T12:46:56.078Z,1.33
2022-10-26T12:50:00.839Z,2.00
2022-10-26T12:53:13.650Z,2.00
2022-10-26T12:56:21.499Z,2.00
2022-10-26T12:59:35.057Z,2.67
2022-10-26T13:02:56.051Z,4.00
2022-10-26T13:06:34.946Z,1.00
2022-10-26T13:09:40.232Z,2.67
2022-10-26T13:12:50.534Z,3.00
2022-10-26T13:15:59.251Z,3.00
2022-10-26T13:19:05.153Z,3.67
2022-10-26T13:22:16.554Z,2.00
2022-10-26T13:25:26.074Z,3.00
2022-10-26T13:28:43.749Z,2.00
2022-10-26T13:32:00.014Z,2.67
2022-10-26T13:35:07.228Z,3.00
2022-10-26T13:38:15.529Z,3.33
2022-10-26T13:41:31.269Z,4.00
2022-10-26T13:44:42.425Z,2.67
2022-10-26T13:47:52.546Z,3.00
2022-10-26T13:51:02.958Z,3.00
2022-10-26T13:54:21.145Z,4.00
2022-10-26T13:57:34.250Z,6.00
2022-10-26T14:00:40.909Z,5.00
2022-10-26T14:03:46.092Z,5.33
2022-10-26T14:06:53.923Z,6.00
2022-10-26T14:10:01.344Z,6.00
2022-10-26T14:13:09.858Z,8.33
2022-10-26T14:16:18.380Z,8.00
2022-10-26T14:19:26.757Z,8.00
2022-10-26T14:22:32.527Z,7.67
2022-10-26T14:25:42.932Z,15.00
2022-10-26T14:28:54.082Z,9.00
2022-10-26T14:32:00.488Z,8.67
2022-10-26T14:35:04.629Z,10.67
2022-10-26T14:38:17.699Z,10.00
2022-10-26T14:41:22.797Z,9.67
2022-10-26T14:44:27.355Z,7.00
2022-10-26T14:47:34.152Z,9.67
2022-10-26T14:50:37.798Z,8.33
2022-10-26T14:53:50.277Z,9.67
2022-10-26T14:56:54.220Z,6.00
2022-10-26T15:00:05.092Z,11.33
2022-10-26T15:03:16.028Z,12.00
2022-10-26T15:06:43.848Z,7.67
2022-10-26T15:09:49.902Z,11.00
2022-10-26T15:12:53.795Z,12.00
2022-10-26T15:16:08.163Z,15.00
2022-10-26T15:19:23.906Z,14.00
2022-10-26T15:22:31.997Z,9.33
2022-10-26T15:25:41.975Z,12.67
2022-10-26T15:28:47.222Z,10.33
2022-10-26T15:32:01.753Z,11.67
2022-10-26T15:35:33.359Z,12.00
2022-10-26T15:38:37.556Z,18.75
2022-10-26T15:41:53.728Z,25.00
2022-10-26T15:44:58.091Z,22.00
2022-10-26T15:48:19.120Z,19.50
2022-10-26T15:51:24.749Z,50.75
2022-10-26T15:54:30.469Z,134.50
2022-10-26T15:57:36.055Z,33.50
2022-10-26T16:00:40.635Z,34.00
2022-10-26T16:03:44.876Z,30.75
2022-10-26T16:06:48.589Z,22.25
2022-10-26T16:09:52.683Z,56.00
2022-10-26T16:12:59.424Z,52.50
2022-10-26T16:16:03.746Z,34.25
2022-10-26T16:22:33.703Z,46.25
2022-10-26T16:25:44.286Z,24.00
2022-10-26T16:28:50.143Z,38.25
2022-10-26T16:31:54.487Z,33.00
2022-10-26T16:34:58.536Z,38.00
2022-10-26T16:38:03.274Z,33.25
2022-10-26T16:41:09.502Z,31.25
2022-10-26T16:44:15.755Z,33.00
2022-10-26T16:50:24.300Z,35.00
2022-10-26T16:53:28.281Z,30.00
2022-10-26T16:56:31.965Z,24.00
2022-10-26T16:59:37.646Z,28.25
2022-10-26T17:02:42.396Z,24.25
2022-10-26T17:05:46.733Z,29.00
2022-10-26T17:08:58.070Z,40.25
2022-10-26T17:12:02.319Z,33.75
2022-10-26T17:15:08.565Z,33.25
2022-10-26T17:18:12.869Z,35.00
2022-10-26T17:21:19.040Z,37.25
2022-10-26T17:24:22.902Z,40.25
2022-10-26T17:27:26.780Z,40.25
2022-10-26T17:30:34.943Z,34.25
2022-10-26T17:33:42.943Z,36.75
2022-10-26T17:36:47.023Z,34.75
2022-10-26T17:39:50.663Z,40.00
2022-10-26T17:42:57.120Z,35.00
2022-10-26T17:46:03.507Z,27.75
2022-10-26T17:49:08.479Z,25.25
2022-10-26T17:52:12.351Z,28.00
2022-10-26T17:55:16.784Z,28.00
2022-10-26T17:58:20.320Z,25.75
2022-10-26T18:01:26.442Z,28.50
2022-10-26T18:04:30.092Z,30.00
2022-10-26T18:07:34.457Z,30.25
2022-10-26T18:10:38.484Z,30.00
2022-10-26T18:13:42.721Z,32.25
2022-10-26T18:16:50.443Z,31.00
2022-10-26T18:19:55.164Z,34.00
2022-10-26T18:22:59.035Z,40.25
2022-10-26T18:26:11.203Z,36.00
2022-10-26T18:29:17.866Z,35.00
2022-10-26T18:32:23.598Z,25.75
2022-10-26T18:35:27.250Z,25.00
2022-10-26T18:38:31.605Z,22.00
2022-10-26T18:41:35.925Z,21.75
2022-10-26T18:44:40.239Z,27.00
2022-10-26T18:47:45.451Z,29.00
2022-10-26T18:50:51.673Z,21.25
2022-10-26T18:53:58.015Z,21.50
2022-10-26T18:57:02.310Z,26.50
2022-10-26T19:00:06.835Z,28.00
2022-10-26T19:03:12.372Z,27.00
2022-10-26T19:06:18.433Z,21.75
2022-10-26T19:09:22.835Z,23.00
2022-10-26T19:12:29.227Z,27.00
2022-10-26T19:16:02.038Z,27.50
2022-10-26T19:19:09.173Z,31.00
2022-10-26T19:22:13.291Z,28.00
2022-10-26T19:25:17.253Z,32.00
2022-10-26T19:28:21.517Z,28.00
2022-10-26T19:31:27.186Z,24.00
2022-10-26T19:34:33.046Z,30.50
2022-10-26T19:37:36.645Z,38.50
2022-10-26T19:40:41.071Z,26.25
2022-10-26T19:43:45.529Z,27.75
2022-10-26T19:46:49.561Z,24.75
2022-10-26T19:49:54.800Z,23.00
2022-10-26T19:53:18.064Z,21.75
2022-10-26T19:56:54.861Z,22.25
2022-10-26T20:00:45.739Z,20.00
2022-10-26T20:04:36.366Z,30.00
2022-10-26T20:08:15.537Z,18.00
2022-10-26T20:11:58.006Z,20.00
2022-10-26T20:15:06.331Z,22.75
2022-10-26T20:18:13.362Z,33.00
2022-10-26T20:21:18.176Z,36.00
2022-10-26T20:24:40.832Z,36.00
2022-10-26T20:27:50.741Z,27.00
2022-10-26T20:30:56.476Z,26.25
2022-10-26T20:34:01.160Z,19.00
2022-10-26T20:37:05.423Z,27.25
2022-10-26T20:40:12.976Z,27.75
2022-10-26T20:43:18.855Z,23.00
2022-10-26T20:46:24.679Z,24.25
2022-10-26T20:49:29.079Z,23.00
2022-10-26T20:52:39.690Z,24.00
2022-10-26T20:55:51.664Z,27.00
2022-10-26T20:58:57.250Z,27.25
2022-10-26T21:02:01.231Z,28.50
2022-10-26T21:05:05.797Z,28.25
2022-10-26T21:08:09.619Z,25.50
2022-10-26T21:11:14.836Z,28.50
2022-10-26T21:14:19.083Z,21.75
2022-10-26T21:17:22.778Z,24.00
2022-10-26T21:20:27.058Z,26.25
2022-10-26T21:23:31.718Z,27.25
2022-10-26T21:26:37.438Z,31.00
2022-10-26T21:29:50.091Z,31.25
2022-10-26T21:32:54.786Z,26.00
2022-10-26T21:35:58.587Z,27.50
2022-10-26T21:39:02.612Z,25.25
2022-10-26T21:42:07.899Z,27.00
2022-10-26T21:45:12.014Z,27.00
2022-10-26T21:48:15.728Z,25.75
2022-10-26T21:51:21.639Z,26.75
2022-10-26T21:54:25.278Z,23.25
2022-10-26T21:57:31.123Z,24.00
2022-10-26T22:00:35.048Z,24.00
2022-10-26T22:03:39.749Z,25.00
2022-10-26T22:06:44.002Z,20.75
2022-10-26T22:10:00.710Z,22.00
2022-10-26T22:13:13.676Z,40.50
2022-10-26T22:16:21.010Z,25.50
2022-10-26T22:19:24.641Z,24.75
2022-10-26T22:22:28.443Z,19.75
2022-10-26T22:25:32.825Z,19.50
2022-10-26T22:28:42.510Z,17.50
2022-10-26T22:31:46.531Z,26.50
2022-10-26T22:34:56.477Z,28.50
2022-10-26T22:38:14.117Z,20.00
2022-10-26T22:41:19.186Z,19.75
2022-10-26T22:44:24.580Z,19.00
2022-10-26T22:47:29.911Z,18.75
2022-10-26T22:50:33.624Z,18.00
2022-10-26T22:53:37.926Z,20.00
2022-10-26T22:56:41.500Z,21.25
2022-10-26T22:59:47.171Z,19.50
2022-10-26T23:02:52.283Z,18.00
2022-10-26T23:05:57.498Z,27.00
2022-10-26T23:09:01.332Z,5.00
2022-10-26T23:12:06.002Z,24.25
2022-10-26T23:15:12.323Z,22.25
2022-10-26T23:18:17.778Z,19.75
2022-10-26T23:21:22.382Z,18.50
2022-10-26T23:24:26.634Z,21.00
2022-10-26T23:27:30.703Z,21.00
2022-10-26T23:30:36.177Z,22.00
2022-10-26T23:33:39.927Z,24.00
2022-10-26T23:36:43.930Z,21.25
2022-10-26T23:39:47.712Z,19.25
2022-10-26T23:42:51.762Z,19.25
2022-10-26T23:45:57.656Z,18.50
2022-10-26T23:49:02.370Z,25.00
2022-10-26T23:52:06.201Z,20.00
2022-10-26T23:55:10.755Z,18.75
2022-10-26T23:58:15.177Z,19.75
